createdAt,value
2023-04-12T00:00:52.965Z,99935.03
2023-04-12T00:03:21.343Z,99930.69
2023-04-12T00:05:54.674Z,99920.19
2023-04-12T00:08:33.838Z,99906.31
2023-04-12T00:11:02.956Z,99890.81
2023-04-12T00:13:31.068Z,99889.13
2023-04-12T00:15:59.028Z,99878.84
2023-04-12T00:18:27.697Z,99879.75
2023-04-12T00:20:55.932Z,99877.13
2023-04-12T00:23:23.385Z,99878.03
2023-04-12T00:25:51.189Z,99884.97
2023-04-12T00:28:19.071Z,99885.84
2023-04-12T00:30:46.585Z,99899.72
2023-04-12T00:33:15.346Z,99905.84
2023-04-12T00:35:42.956Z,99910.19
2023-04-12T00:38:11.065Z,99911.91
2023-04-12T00:40:42.823Z,99915.44
2023-04-12T00:43:15.630Z,99914.59
2023-04-12T00:45:44.613Z,99902.47
2023-04-12T00:48:12.764Z,99892.81
2023-04-12T00:50:47.662Z,99876.25
2023-04-12T00:53:15.781Z,99872.78
2023-04-12T00:55:45.819Z,99875.44
2023-04-12T00:58:14.755Z,99886.84
2023-04-12T01:00:44.893Z,99867.69
2023-04-12T01:03:13.921Z,99861.63
2023-04-12T01:05:50.574Z,99870.38
2023-04-12T01:08:55.870Z,99879.91
2023-04-12T01:11:23.489Z,99893.78
2023-04-12T01:14:08.076Z,99879.06
2023-04-12T01:16:44.390Z,99882.53
2023-04-12T01:19:37.340Z,99891.19
2023-04-12T01:22:23.100Z,99876.41
2023-04-12T01:25:23.924Z,99861.66
2023-04-12T01:28:01.140Z,99857.28
2023-04-12T01:30:29.273Z,99858.16
2023-04-12T01:32:59.954Z,99843.38
2023-04-12T01:35:32.855Z,99839.94
2023-04-12T01:38:03.507Z,99847.75
2023-04-12T01:40:31.663Z,99860.78
2023-04-12T01:43:06.248Z,99872.94
2023-04-12T01:45:34.387Z,99899.88
2023-04-12T01:48:09.139Z,99911.19
2023-04-12T01:50:58.030Z,99892.94
2023-04-12T01:53:25.690Z,99900.78
2023-04-12T01:55:58.826Z,99892.94
2023-04-12T01:58:27.164Z,99874.69
2023-04-12T02:00:55.865Z,99872.09
2023-04-12T02:03:23.962Z,99858.19
2023-04-12T02:05:52.520Z,99852.97
2023-04-12T02:08:22.117Z,99862.53
2023-04-12T02:10:49.577Z,99865.13
2023-04-12T02:13:20.235Z,99865.16
2023-04-12T02:15:48.109Z,99868.59
2023-04-12T02:18:17.047Z,99858.19
2023-04-12T02:20:45.031Z,99852.09
2023-04-12T02:23:13.289Z,99859.91
2023-04-12T02:25:41.756Z,99866.88
2023-04-12T02:28:09.223Z,99862.53
2023-04-12T02:30:36.914Z,99864.25
2023-04-12T02:33:06.263Z,99848.63
2023-04-12T02:35:36.985Z,99851.22
2023-04-12T02:38:10.290Z,99852.97
2023-04-12T02:40:43.857Z,99850.38
2023-04-12T02:43:15.543Z,99858.19
2023-04-12T02:45:47.709Z,99861.66
2023-04-12T02:48:15.781Z,99882.50
2023-04-12T02:50:44.193Z,99875.59
2023-04-12T02:53:17.653Z,99867.75
2023-04-12T02:55:50.199Z,99871.22
2023-04-12T02:58:24.544Z,99888.59
2023-04-12T03:00:53.636Z,99868.63
2023-04-12T03:03:28.770Z,99866.03
2023-04-12T03:06:00.168Z,99865.16
2023-04-12T03:08:27.705Z,99874.72
2023-04-12T03:10:58.106Z,99868.66
2023-04-12T03:13:27.085Z,99870.34
2023-04-12T03:15:58.879Z,99864.31
2023-04-12T03:18:34.950Z,99864.28
2023-04-12T03:21:02.682Z,99858.19
2023-04-12T03:23:31.349Z,99858.22
2023-04-12T03:26:13.989Z,99863.41
2023-04-12T03:29:09.599Z,99868.63
2023-04-12T03:31:40.156Z,99844.31
2023-04-12T03:34:09.387Z,99851.25
2023-04-12T03:36:41.818Z,99845.19
2023-04-12T03:39:20.319Z,99851.25
2023-04-12T03:41:53.396Z,99848.69
2023-04-12T03:44:26.310Z,99858.22
2023-04-12T03:46:56.919Z,99868.63
2023-04-12T03:49:25.521Z,99874.66
2023-04-12T03:51:53.295Z,99863.41
2023-04-12T03:54:20.772Z,99862.56
2023-04-12T03:56:57.684Z,99844.28
2023-04-12T03:59:45.448Z,99852.97
2023-04-12T04:02:14.231Z,99839.09
2023-04-12T04:04:47.417Z,99839.09
2023-04-12T04:07:23.576Z,99850.38
2023-04-12T04:09:55.353Z,99846.91
2023-04-12T04:12:24.138Z,99854.72
2023-04-12T04:14:54.903Z,99859.03
2023-04-12T04:17:30.746Z,99866.84
2023-04-12T04:19:58.490Z,99868.59
2023-04-12T04:22:26.581Z,99867.72
2023-04-12T04:24:56.016Z,99869.47
2023-04-12T04:27:23.534Z,99866.84
2023-04-12T04:29:52.941Z,99862.47
2023-04-12T04:32:20.805Z,99860.75
2023-04-12T04:34:49.279Z,99865.06
2023-04-12T04:37:19.013Z,99873.72
2023-04-12T04:39:48.229Z,99875.47
2023-04-12T04:42:15.642Z,99879.78
2023-04-12T04:45:12.826Z,99876.34
2023-04-12T04:47:43.181Z,99885.88
2023-04-12T04:50:11.205Z,99883.25
2023-04-12T04:52:39.511Z,99890.22
2023-04-12T04:55:11.732Z,99881.53
2023-04-12T04:57:41.818Z,99884.03
2023-04-12T05:00:14.071Z,99885.00
2023-04-12T05:02:45.794Z,99887.59
2023-04-12T05:05:23.488Z,99901.47
2023-04-12T05:07:57.531Z,99897.91
2023-04-12T05:10:27.506Z,99900.50
2023-04-12T05:12:55.378Z,99897.91
2023-04-12T05:15:24.813Z,99902.22
2023-04-12T05:17:52.380Z,99910.81
2023-04-12T05:20:20.483Z,99903.88
2023-04-12T05:22:47.924Z,99902.13
2023-04-12T05:25:15.755Z,99900.28
2023-04-12T05:27:52.314Z,99900.28
2023-04-12T05:30:21.039Z,99895.06
2023-04-12T05:32:48.668Z,99895.06
2023-04-12T05:35:18.663Z,99889.00
2023-04-12T05:37:47.828Z,99902.06
2023-04-12T05:40:15.549Z,99910.78
2023-04-12T05:42:43.405Z,99905.50
2023-04-12T05:45:12.183Z,99900.31
2023-04-12T05:47:40.239Z,99909.06
2023-04-12T05:50:08.278Z,99908.28
2023-04-12T05:52:37.597Z,99910.88
2023-04-12T05:55:06.880Z,99912.66
2023-04-12T05:57:36.559Z,99915.25
2023-04-12T06:00:07.826Z,99917.97
2023-04-12T06:02:41.000Z,99914.59
2023-04-12T06:05:10.385Z,99927.66
2023-04-12T06:07:39.455Z,99925.59
2023-04-12T06:10:07.583Z,99932.75
2023-04-12T06:12:35.078Z,99933.59
2023-04-12T06:15:02.948Z,99940.22
2023-04-12T06:17:30.519Z,99934.72
2023-04-12T06:19:58.364Z,99936.22
2023-04-12T06:22:25.892Z,99931.66
2023-04-12T06:24:53.440Z,99940.78
2023-04-12T06:27:22.750Z,99931.06
2023-04-12T06:29:51.705Z,99948.56
2023-04-12T06:32:19.340Z,99949.22
2023-04-12T06:34:47.612Z,99940.22
2023-04-12T06:37:16.129Z,99955.63
2023-04-12T06:39:46.004Z,99953.50
2023-04-12T06:42:14.870Z,99962.25
2023-04-12T06:44:42.747Z,99957.38
2023-04-12T06:47:10.246Z,99964.75
2023-04-12T06:49:38.922Z,99959.63
2023-04-12T06:52:06.468Z,99957.72
2023-04-12T06:54:37.640Z,99954.72
2023-04-12T06:57:11.162Z,99952.25
2023-04-12T06:59:38.623Z,99960.25
2023-04-12T07:02:07.875Z,99962.03
2023-04-12T07:04:35.555Z,99958.75
2023-04-12T07:07:03.054Z,99963.34
2023-04-12T07:09:33.779Z,99970.63
2023-04-12T07:12:02.510Z,99964.91
2023-04-12T07:14:30.096Z,99960.44
2023-04-12T07:16:57.609Z,99967.59
2023-04-12T07:19:25.153Z,99975.06
2023-04-12T07:21:52.787Z,99984.78
2023-04-12T07:24:20.541Z,99969.56
2023-04-12T07:26:48.018Z,99964.22
2023-04-12T07:29:17.405Z,99974.53
2023-04-12T07:31:46.233Z,99982.19
2023-04-12T07:34:13.948Z,99988.50
2023-04-12T07:36:44.055Z,99983.44
2023-04-12T07:39:15.420Z,99987.00
2023-04-12T07:41:46.406Z,99981.97
2023-04-12T07:44:14.138Z,99997.69
2023-04-12T07:46:42.096Z,99997.84
2023-04-12T07:49:10.772Z,99994.38
2023-04-12T07:51:38.571Z,99997.91
2023-04-12T07:54:06.555Z,100004.00
2023-04-12T07:56:35.488Z,99995.34
2023-04-12T07:59:03.199Z,100007.56
2023-04-12T08:01:31.168Z,100003.19
2023-04-12T08:03:59.118Z,100010.16
2023-04-12T08:06:30.024Z,100004.78
2023-04-12T08:08:58.815Z,99998.91
2023-04-12T08:11:26.314Z,100001.47
2023-04-12T08:13:53.878Z,100007.34
2023-04-12T08:16:21.470Z,100007.41
2023-04-12T08:18:49.064Z,99996.72
2023-04-12T08:21:16.322Z,100005.34
2023-04-12T08:23:44.105Z,100003.50
2023-04-12T08:26:11.645Z,100006.31
2023-04-12T08:28:39.953Z,100013.22
2023-04-12T08:31:08.673Z,100008.47
2023-04-12T08:33:36.373Z,100018.69
2023-04-12T08:36:04.409Z,100020.88
2023-04-12T08:41:06.012Z,100014.63
2023-04-12T08:43:34.697Z,100020.63
2023-04-12T08:46:02.314Z,100011.66
2023-04-12T08:48:29.989Z,100009.56
2023-04-12T08:51:00.240Z,100006.84
2023-04-12T08:53:27.708Z,99996.00
2023-04-12T08:55:56.545Z,99997.13
2023-04-12T08:58:26.592Z,99991.78
2023-04-12T09:00:54.876Z,99987.34
2023-04-12T09:03:22.838Z,100002.63
2023-04-12T09:05:50.704Z,99999.38
2023-04-12T09:08:18.486Z,100002.72
2023-04-12T09:10:46.275Z,99995.75
2023-04-12T09:13:13.616Z,100007.16
2023-04-12T09:15:50.910Z,100003.94
2023-04-12T09:18:19.011Z,99998.41
2023-04-12T09:20:46.688Z,99988.75
2023-04-12T09:23:22.605Z,99998.13
2023-04-12T09:25:52.903Z,100001.59
2023-04-12T09:28:26.672Z,99996.97
2023-04-12T09:30:56.264Z,99999.38
2023-04-12T09:33:34.369Z,99987.66
2023-04-12T09:36:03.785Z,99988.78
2023-04-12T09:38:32.160Z,99988.63
2023-04-12T09:41:26.880Z,99991.81
2023-04-12T09:43:55.095Z,99986.38
2023-04-12T09:46:23.271Z,99987.72
2023-04-12T09:48:53.607Z,99990.41
2023-04-12T09:51:32.918Z,99981.53
2023-04-12T09:54:02.660Z,99986.78
2023-04-12T09:56:32.605Z,99985.22
2023-04-12T09:59:05.114Z,99981.78
2023-04-12T10:01:38.739Z,99984.00
2023-04-12T10:04:09.366Z,100001.63
2023-04-12T10:06:37.691Z,99988.19
2023-04-12T10:09:06.782Z,99981.53
2023-04-12T10:11:34.855Z,99979.44
2023-04-12T10:14:03.293Z,99977.69
2023-04-12T10:16:31.215Z,99978.94
2023-04-12T10:19:02.570Z,99972.16
2023-04-12T10:21:31.227Z,99966.06
2023-04-12T10:23:59.151Z,99965.25
2023-04-12T10:26:28.072Z,99961.22
2023-04-12T10:29:27.500Z,99962.78
2023-04-12T10:31:57.293Z,99973.72
2023-04-12T10:34:29.260Z,99961.69
2023-04-12T10:37:01.802Z,99955.63
2023-04-12T10:39:43.832Z,99951.59
2023-04-12T10:42:25.205Z,99957.63
2023-04-12T10:45:15.561Z,99954.59
2023-04-12T10:47:49.294Z,99959.53
2023-04-12T10:50:27.303Z,99949.91
2023-04-12T10:53:12.990Z,99954.03
2023-04-12T10:55:41.810Z,99951.50
2023-04-12T10:58:11.426Z,99947.56
2023-04-12T11:00:57.939Z,99951.75
2023-04-12T11:03:28.355Z,99947.66
2023-04-12T11:06:19.939Z,99940.16
2023-04-12T11:09:22.452Z,99959.50
2023-04-12T11:11:50.687Z,99969.38
2023-04-12T11:14:18.680Z,99991.28
2023-04-12T11:17:18.734Z,99992.19
2023-04-12T11:19:50.154Z,99986.91
2023-04-12T11:22:19.704Z,99975.97
2023-04-12T11:24:52.421Z,99971.84
2023-04-12T11:27:24.659Z,99967.53
2023-04-12T11:29:54.589Z,99952.63
2023-04-12T11:32:28.041Z,99951.53
2023-04-12T11:34:57.114Z,99961.91
2023-04-12T11:37:27.321Z,99961.16
2023-04-12T11:39:57.821Z,99948.00
2023-04-12T11:42:26.758Z,99951.13
2023-04-12T11:44:59.819Z,99940.00
2023-04-12T11:47:29.651Z,99937.38
2023-04-12T11:49:59.004Z,99930.47
2023-04-12T11:52:31.940Z,99934.81
2023-04-12T11:55:02.462Z,99921.09
2023-04-12T11:57:31.220Z,99918.44
2023-04-12T12:00:00.442Z,99928.91
2023-04-12T12:02:31.717Z,99914.31
2023-04-12T12:05:03.368Z,99912.72
2023-04-12T12:07:31.712Z,99914.06
2023-04-12T12:10:00.928Z,99896.84
2023-04-12T12:12:28.351Z,99913.31
2023-04-12T12:15:00.514Z,99901.41
2023-04-12T12:17:28.086Z,99902.78
2023-04-12T12:19:59.477Z,99910.44
2023-04-12T12:22:27.055Z,99912.81
2023-04-12T12:24:59.352Z,99914.59
2023-04-12T12:27:38.674Z,99879.78
2023-04-12T12:30:11.561Z,99898.19
2023-04-12T12:32:40.162Z,99886.53
2023-04-12T12:35:13.114Z,99900.81
2023-04-12T12:37:52.544Z,99881.81
2023-04-12T12:40:29.500Z,99894.81
2023-04-12T12:42:57.104Z,99890.66
2023-04-12T12:45:27.313Z,99904.88
2023-04-12T12:48:04.266Z,99907.25
2023-04-12T12:50:33.692Z,99895.06
2023-04-12T12:53:02.220Z,99895.41
2023-04-12T12:55:31.308Z,99907.53
2023-04-12T12:58:06.621Z,99888.31
2023-04-12T13:00:36.655Z,99899.78
2023-04-12T13:03:04.736Z,99898.66
2023-04-12T13:05:32.749Z,99898.44
2023-04-12T13:08:00.199Z,99906.22
2023-04-12T13:10:27.736Z,99915.69
2023-04-12T13:12:55.260Z,99903.75
2023-04-12T13:15:24.632Z,99901.72
2023-04-12T13:17:53.152Z,99889.88
2023-04-12T13:20:21.945Z,99898.53
2023-04-12T13:22:51.614Z,99892.25
2023-04-12T13:25:22.160Z,99899.28
2023-04-12T13:27:51.442Z,99917.91
2023-04-12T13:30:20.030Z,99907.78
2023-04-12T13:32:47.847Z,99926.28
2023-04-12T13:35:15.508Z,99932.41
2023-04-12T13:37:43.053Z,99970.22
2023-04-12T13:40:11.031Z,99974.94
2023-04-12T13:42:38.619Z,99974.47
2023-04-12T13:45:07.760Z,99956.13
2023-04-12T13:47:35.495Z,99952.84
2023-04-12T13:50:02.983Z,99949.25
2023-04-12T13:52:30.507Z,99933.38
2023-04-12T13:54:59.667Z,99939.59
2023-04-12T13:57:27.363Z,99933.78
2023-04-12T13:59:54.847Z,99918.91
2023-04-12T14:02:22.479Z,99916.00
2023-04-12T14:04:54.693Z,99914.00
2023-04-12T14:07:22.932Z,99926.34
2023-04-12T14:09:50.689Z,99926.13
2023-04-12T14:12:18.260Z,99913.78
2023-04-12T14:14:45.701Z,99929.47
2023-04-12T14:17:13.467Z,99915.41
2023-04-12T14:19:41.068Z,99892.31
2023-04-12T14:22:08.701Z,99916.91
2023-04-12T14:24:36.934Z,99891.75
2023-04-12T14:27:05.010Z,99898.06
2023-04-12T14:29:32.452Z,99905.28
2023-04-12T14:31:59.988Z,99883.59
2023-04-12T14:34:27.435Z,99902.09
2023-04-12T14:36:56.431Z,99891.47
2023-04-12T14:39:24.557Z,99910.59
2023-04-12T14:41:52.139Z,99907.72
2023-04-12T14:44:20.797Z,99918.00
2023-04-12T14:46:49.079Z,99918.16
2023-04-12T14:49:16.553Z,99913.06
2023-04-12T14:51:44.132Z,99915.91
2023-04-12T14:54:11.656Z,99925.66
2023-04-12T14:56:45.448Z,99959.25
2023-04-12T14:59:17.200Z,99969.19
2023-04-12T15:01:44.955Z,99970.34
2023-04-12T15:04:13.226Z,99981.06
2023-04-12T15:06:42.746Z,99965.56
2023-04-12T15:09:10.961Z,99973.53
2023-04-12T15:11:39.809Z,99952.69
2023-04-12T15:14:07.605Z,99942.84
2023-04-12T15:16:35.230Z,99951.41
2023-04-12T15:19:10.214Z,99958.16
2023-04-12T15:21:43.796Z,99957.59
2023-04-12T15:24:11.285Z,99960.25
2023-04-12T15:26:38.875Z,99951.53
2023-04-12T15:29:06.538Z,99941.91
2023-04-12T15:31:34.324Z,99934.97
2023-04-12T15:34:01.931Z,99936.94
2023-04-12T15:36:34.300Z,99948.22
2023-04-12T15:39:02.184Z,99931.78
2023-04-12T15:41:34.979Z,99929.88
2023-04-12T15:44:02.699Z,99917.53
2023-04-12T15:46:30.488Z,99936.69
2023-04-12T15:48:58.762Z,99934.09
2023-04-12T15:51:27.469Z,99948.13
2023-04-12T15:53:56.374Z,99922.13
2023-04-12T15:56:25.418Z,99929.16
2023-04-12T15:58:57.528Z,99934.41
2023-04-12T16:01:25.822Z,99949.19
2023-04-12T16:03:53.777Z,99946.53
2023-04-12T16:06:25.288Z,99958.78
2023-04-12T16:08:54.892Z,99973.91
2023-04-12T16:11:24.051Z,99960.00
2023-04-12T16:13:53.052Z,99952.88
2023-04-12T16:16:23.963Z,99945.94
2023-04-12T16:18:52.873Z,99952.03
2023-04-12T16:21:22.434Z,99983.56
2023-04-12T16:23:51.397Z,100019.66
2023-04-12T16:26:22.107Z,100058.28
2023-04-12T16:28:51.839Z,100047.38
2023-04-12T16:31:21.683Z,100059.63
2023-04-12T16:33:50.097Z,100051.00
2023-04-12T16:36:18.365Z,100059.78
2023-04-12T16:38:46.036Z,100067.59
2023-04-12T16:41:13.532Z,100063.25
2023-04-12T16:43:42.696Z,100061.53
2023-04-12T16:46:11.753Z,100055.44
2023-04-12T16:48:41.140Z,100035.44
2023-04-12T16:51:08.979Z,100027.59
2023-04-12T16:53:37.215Z,100022.38
2023-04-12T16:56:05.262Z,100020.66
2023-04-12T16:58:33.554Z,100033.69
2023-04-12T17:01:02.247Z,100030.25
2023-04-12T17:03:30.342Z,100028.47
2023-04-12T17:05:58.341Z,100030.22
2023-04-12T17:08:25.977Z,100038.03
2023-04-12T17:10:54.560Z,100031.94
2023-04-12T17:13:22.552Z,100044.13
2023-04-12T17:15:50.150Z,100052.84
2023-04-12T17:18:17.871Z,100055.44
2023-04-12T17:20:45.594Z,100065.00
2023-04-12T17:23:13.703Z,100067.59
2023-04-12T17:25:41.948Z,100072.81
2023-04-12T17:28:09.549Z,100073.69
2023-04-12T17:30:37.151Z,100073.72
2023-04-12T17:33:05.173Z,100074.56
2023-04-12T17:35:33.152Z,100071.94
2023-04-12T17:38:00.845Z,100080.63
2023-04-12T17:40:28.305Z,100070.22
2023-04-12T17:42:55.604Z,100059.78
2023-04-12T17:45:23.805Z,100058.91
2023-04-12T17:47:51.647Z,100055.44
2023-04-12T17:50:19.226Z,100051.94
2023-04-12T17:52:47.408Z,100055.41
2023-04-12T17:55:15.856Z,100048.50
2023-04-12T17:57:44.467Z,100047.59
2023-04-12T18:00:12.456Z,100041.50
2023-04-12T18:02:46.921Z,100042.38
2023-04-12T18:05:15.475Z,100040.66
2023-04-12T18:07:43.164Z,100046.72
2023-04-12T18:10:13.103Z,100051.94
2023-04-12T18:12:40.978Z,100050.22
2023-04-12T18:15:09.181Z,100048.50
2023-04-12T18:17:37.102Z,100062.41
2023-04-12T18:20:09.859Z,100063.28
2023-04-12T18:22:38.484Z,100069.34
2023-04-12T18:25:10.283Z,100057.16
2023-04-12T18:27:37.778Z,100053.69
2023-04-12T18:30:06.036Z,100050.22
2023-04-12T18:32:33.606Z,100058.03
2023-04-12T18:35:02.564Z,100051.09
2023-04-12T18:37:30.146Z,100051.06
2023-04-12T18:39:58.021Z,100058.91
2023-04-12T18:42:25.678Z,100061.50
2023-04-12T18:44:53.155Z,100070.19
2023-04-12T18:47:21.534Z,100067.59
2023-04-12T18:49:49.636Z,100078.03
2023-04-12T18:52:17.341Z,100069.34
2023-04-12T18:54:46.395Z,100073.69
2023-04-12T18:57:15.822Z,100082.38
2023-04-12T18:59:47.850Z,100091.06
2023-04-12T19:02:15.571Z,100100.63
2023-04-12T19:04:43.103Z,100093.69
2023-04-12T19:07:10.880Z,100092.84
2023-04-12T19:09:38.690Z,100097.16
2023-04-12T19:12:06.497Z,100107.59
2023-04-12T19:14:33.960Z,100108.47
2023-04-12T19:17:02.807Z,100114.53
2023-04-12T19:19:30.336Z,100117.16
2023-04-12T19:21:57.672Z,100114.56
2023-04-12T19:24:25.154Z,100118.91
2023-04-12T19:26:52.670Z,100136.28
2023-04-12T19:29:21.243Z,100131.94
2023-04-12T19:31:49.225Z,100140.63
2023-04-12T19:34:18.048Z,100152.78
2023-04-12T19:36:45.890Z,100164.09
2023-04-12T19:39:13.617Z,100167.56
2023-04-12T19:41:41.150Z,100178.88
2023-04-12T19:44:08.818Z,100176.22
2023-04-12T19:46:39.118Z,100185.81
2023-04-12T19:49:06.673Z,100180.59
2023-04-12T19:51:34.746Z,100177.09
2023-04-12T19:54:11.185Z,100191.00
2023-04-12T19:56:39.437Z,100190.13
2023-04-12T19:59:06.922Z,100191.84
2023-04-12T20:01:43.191Z,100199.72
2023-04-12T20:04:10.914Z,100218.84
2023-04-12T20:06:38.906Z,100217.13
2023-04-12T20:09:06.344Z,100224.06
2023-04-12T20:11:33.598Z,100225.75
2023-04-12T20:14:01.200Z,100219.72
2023-04-12T20:16:28.845Z,100229.22
2023-04-12T20:18:57.739Z,100224.88
2023-04-12T20:21:25.485Z,100217.91
2023-04-12T20:23:52.982Z,100221.28
2023-04-12T20:26:21.199Z,100220.50
2023-04-12T20:28:48.934Z,100216.19
2023-04-12T20:31:16.512Z,100225.72
2023-04-12T20:33:43.980Z,100230.91
2023-04-12T20:36:11.286Z,100223.03
2023-04-12T20:38:38.852Z,100224.75
2023-04-12T20:41:06.305Z,100230.81
2023-04-12T20:43:34.936Z,100235.19
2023-04-12T20:46:02.573Z,100236.06
2023-04-12T20:48:30.137Z,100226.47
2023-04-12T20:50:57.512Z,100240.38
2023-04-12T20:53:25.688Z,100238.66
2023-04-12T20:55:54.940Z,100237.75
2023-04-12T20:58:23.863Z,100243.03
2023-04-12T21:00:51.334Z,100249.13
2023-04-12T21:03:18.995Z,100254.31
2023-04-12T21:05:50.868Z,100245.75
2023-04-12T21:08:18.667Z,100255.28
2023-04-12T21:10:53.004Z,100266.59
2023-04-12T21:13:22.762Z,100259.63
2023-04-12T21:15:50.506Z,100262.22
2023-04-12T21:18:20.299Z,100269.09
2023-04-12T21:20:48.622Z,100260.38
2023-04-12T21:23:17.542Z,100267.28
2023-04-12T21:25:50.906Z,100266.44
2023-04-12T21:28:18.424Z,100242.03
2023-04-12T21:30:46.297Z,100257.53
2023-04-12T21:33:13.904Z,100252.25
2023-04-12T21:35:41.365Z,100243.56
2023-04-12T21:38:09.087Z,100257.47
2023-04-12T21:40:36.926Z,100250.53
2023-04-12T21:43:04.862Z,100249.66
2023-04-12T21:45:32.397Z,100244.34
2023-04-12T21:48:00.071Z,100243.47
2023-04-12T21:50:27.523Z,100247.06
2023-04-12T21:52:55.354Z,100249.56
2023-04-12T21:55:22.834Z,100246.16
2023-04-12T21:57:50.607Z,100241.75
2023-04-12T22:00:18.360Z,100246.16
2023-04-12T22:02:46.228Z,100251.28
2023-04-12T22:05:13.795Z,100243.53
2023-04-12T22:07:41.607Z,100262.47
2023-04-12T22:10:09.672Z,100256.47
2023-04-12T22:12:37.529Z,100266.03
2023-04-12T22:15:06.033Z,100261.59
2023-04-12T22:17:33.760Z,100257.34
2023-04-12T22:20:01.286Z,100265.09
2023-04-12T22:22:29.332Z,100264.25
2023-04-12T22:24:56.752Z,100259.03
2023-04-12T22:27:26.705Z,100265.09
2023-04-12T22:29:54.355Z,100269.56
2023-04-12T22:32:22.065Z,100277.31
2023-04-12T22:34:58.026Z,100276.44
2023-04-12T22:37:33.736Z,100269.41
2023-04-12T22:40:11.869Z,100275.50
2023-04-12T22:42:47.011Z,100284.03
2023-04-12T22:45:18.190Z,100291.03
2023-04-12T22:47:45.897Z,100279.72
2023-04-12T22:50:13.758Z,100282.50
2023-04-12T22:52:42.004Z,100290.22
2023-04-12T22:55:14.437Z,100303.97
2023-04-12T22:57:42.067Z,100296.25
2023-04-12T23:00:15.807Z,100301.34
2023-04-12T23:02:46.103Z,100299.63
2023-04-12T23:05:14.388Z,100307.38
2023-04-12T23:07:43.703Z,100302.25
2023-04-12T23:10:12.401Z,100299.56
2023-04-12T23:12:40.275Z,100305.63
2023-04-12T23:15:09.554Z,100308.13
2023-04-12T23:17:37.426Z,100306.41
2023-04-12T23:20:10.154Z,100309.03
2023-04-12T23:22:56.619Z,100309.75
2023-04-12T23:25:39.277Z,100310.59
2023-04-12T23:28:13.647Z,100310.63
2023-04-12T23:30:48.921Z,100317.47
2023-04-12T23:33:18.645Z,100307.16
2023-04-12T23:35:52.441Z,100319.31
2023-04-12T23:38:24.581Z,100313.94
2023-04-12T23:40:55.037Z,100311.31
2023-04-12T23:43:24.594Z,100310.56
2023-04-12T23:45:52.804Z,100311.44
2023-04-12T23:48:20.994Z,100308.88
2023-04-12T23:50:48.657Z,100310.56
2023-04-12T23:53:17.283Z,100306.06
2023-04-12T23:55:47.988Z,100306.94
2023-04-12T23:58:16.420Z,100311.41
